sensor_id;sensor_type;location;lat;lon;timestamp;temperature;humidity
44894;DHT22;30625;52.206;21.030;2023-04-24T00:00:14;13.90;78.20
44894;DHT22;30625;52.206;21.030;2023-04-24T00:02:44;13.90;78.60
44894;DHT22;30625;52.206;21.030;2023-04-24T00:05:16;13.80;77.70
44894;DHT22;30625;52.206;21.030;2023-04-24T00:07:51;13.80;77.50
44894;DHT22;30625;52.206;21.030;2023-04-24T00:10:21;12.90;77.70
44894;DHT22;30625;52.206;21.030;2023-04-24T00:13:16;13.70;79.10
44894;DHT22;30625;52.206;21.030;2023-04-24T00:15:49;13.70;79.50
44894;DHT22;30625;52.206;21.030;2023-04-24T00:18:32;12.50;77.50
44894;DHT22;30625;52.206;21.030;2023-04-24T00:21:01;13.60;78.70
44894;DHT22;30625;52.206;21.030;2023-04-24T00:23:50;13.50;78.80
44894;DHT22;30625;52.206;21.030;2023-04-24T00:26:22;12.80;77.70
44894;DHT22;30625;52.206;21.030;2023-04-24T00:28:57;13.50;79.00
44894;DHT22;30625;52.206;21.030;2023-04-24T00:31:23;13.40;81.00
44894;DHT22;30625;52.206;21.030;2023-04-24T00:34:20;12.90;80.00
44894;DHT22;30625;52.206;21.030;2023-04-24T00:36:58;14.70;81.10
44894;DHT22;30625;52.206;21.030;2023-04-24T00:39:27;13.30;80.80
44894;DHT22;30625;52.206;21.030;2023-04-24T00:42:18;13.30;81.50
44894;DHT22;30625;52.206;21.030;2023-04-24T00:44:54;13.20;80.90
44894;DHT22;30625;52.206;21.030;2023-04-24T00:47:34;13.10;81.60
44894;DHT22;30625;52.206;21.030;2023-04-24T00:50:44;12.80;81.90
44894;DHT22;30625;52.206;21.030;2023-04-24T00:53:23;13.20;82.50
44894;DHT22;30625;52.206;21.030;2023-04-24T00:55:59;13.20;81.20
44894;DHT22;30625;52.206;21.030;2023-04-24T00:58:38;13.20;81.50
44894;DHT22;30625;52.206;21.030;2023-04-24T01:01:10;13.20;81.90
44894;DHT22;30625;52.206;21.030;2023-04-24T01:04:06;13.10;83.00
44894;DHT22;30625;52.206;21.030;2023-04-24T01:07:05;12.50;82.10
44894;DHT22;30625;52.206;21.030;2023-04-24T01:09:41;13.10;82.80
44894;DHT22;30625;52.206;21.030;2023-04-24T01:12:23;13.10;83.10
44894;DHT22;30625;52.206;21.030;2023-04-24T01:15:11;13.10;83.00
44894;DHT22;30625;52.206;21.030;2023-04-24T01:17:55;13.00;82.70
44894;DHT22;30625;52.206;21.030;2023-04-24T01:20:54;13.10;83.60
44894;DHT22;30625;52.206;21.030;2023-04-24T01:23:35;12.30;83.10
44894;DHT22;30625;52.206;21.030;2023-04-24T01:26:32;13.80;85.00
44894;DHT22;30625;52.206;21.030;2023-04-24T01:29:00;12.10;83.10
44894;DHT22;30625;52.206;21.030;2023-04-24T01:35:07;13.00;84.60
44894;DHT22;30625;52.206;21.030;2023-04-24T01:37:57;13.00;84.00
44894;DHT22;30625;52.206;21.030;2023-04-24T01:40:41;13.00;83.70
44894;DHT22;30625;52.206;21.030;2023-04-24T01:43:16;13.00;83.10
44894;DHT22;30625;52.206;21.030;2023-04-24T01:45:55;12.90;84.00
44894;DHT22;30625;52.206;21.030;2023-04-24T01:48:45;12.90;84.20
44894;DHT22;30625;52.206;21.030;2023-04-24T01:51:17;14.40;86.10
44894;DHT22;30625;52.206;21.030;2023-04-24T01:53:51;12.80;85.10
44894;DHT22;30625;52.206;21.030;2023-04-24T01:56:24;11.20;84.80
44894;DHT22;30625;52.206;21.030;2023-04-24T01:59:05;12.60;85.90
44894;DHT22;30625;52.206;21.030;2023-04-24T02:01:47;12.60;86.30
44894;DHT22;30625;52.206;21.030;2023-04-24T02:04:13;12.70;86.20
44894;DHT22;30625;52.206;21.030;2023-04-24T02:06:52;13.30;86.10
44894;DHT22;30625;52.206;21.030;2023-04-24T02:09:25;12.70;85.50
44894;DHT22;30625;52.206;21.030;2023-04-24T02:12:05;12.80;86.20
44894;DHT22;30625;52.206;21.030;2023-04-24T02:14:55;11.80;85.30
44894;DHT22;30625;52.206;21.030;2023-04-24T02:17:41;12.50;84.90
44894;DHT22;30625;52.206;21.030;2023-04-24T02:20:26;12.00;85.50
44894;DHT22;30625;52.206;21.030;2023-04-24T02:23:01;12.40;86.60
44894;DHT22;30625;52.206;21.030;2023-04-24T02:25:33;12.40;86.60
44894;DHT22;30625;52.206;21.030;2023-04-24T02:28:22;12.40;86.30
44894;DHT22;30625;52.206;21.030;2023-04-24T02:30:55;12.40;86.90
44894;DHT22;30625;52.206;21.030;2023-04-24T02:33:35;12.90;87.20
44894;DHT22;30625;52.206;21.030;2023-04-24T02:36:21;11.60;86.70
44894;DHT22;30625;52.206;21.030;2023-04-24T02:38:57;12.30;86.20
44894;DHT22;30625;52.206;21.030;2023-04-24T02:47:08;12.20;86.50
44894;DHT22;30625;52.206;21.030;2023-04-24T02:49:50;11.30;85.40
44894;DHT22;30625;52.206;21.030;2023-04-24T02:52:38;11.70;86.10
44894;DHT22;30625;52.206;21.030;2023-04-24T02:55:22;12.30;86.50
44894;DHT22;30625;52.206;21.030;2023-04-24T02:57:54;12.30;87.90
44894;DHT22;30625;52.206;21.030;2023-04-24T03:00:31;10.90;86.30
44894;DHT22;30625;52.206;21.030;2023-04-24T03:03:27;12.20;87.20
44894;DHT22;30625;52.206;21.030;2023-04-24T03:06:17;12.10;87.80
44894;DHT22;30625;52.206;21.030;2023-04-24T03:08:53;12.10;87.90
44894;DHT22;30625;52.206;21.030;2023-04-24T03:11:40;13.50;88.70
44894;DHT22;30625;52.206;21.030;2023-04-24T03:14:15;12.10;88.50
44894;DHT22;30625;52.206;21.030;2023-04-24T03:16:47;12.10;89.20
44894;DHT22;30625;52.206;21.030;2023-04-24T03:22:21;10.50;87.80
44894;DHT22;30625;52.206;21.030;2023-04-24T03:24:55;12.00;89.00
44894;DHT22;30625;52.206;21.030;2023-04-24T03:27:45;11.90;88.60
44894;DHT22;30625;52.206;21.030;2023-04-24T03:30:21;11.70;89.00
44894;DHT22;30625;52.206;21.030;2023-04-24T03:33:03;11.90;90.30
44894;DHT22;30625;52.206;21.030;2023-04-24T03:35:32;11.90;89.40
44894;DHT22;30625;52.206;21.030;2023-04-24T03:38:01;10.60;89.00
44894;DHT22;30625;52.206;21.030;2023-04-24T03:40:30;11.90;89.80
44894;DHT22;30625;52.206;21.030;2023-04-24T03:43:28;11.80;89.30
44894;DHT22;30625;52.206;21.030;2023-04-24T03:46:11;11.80;89.20
44894;DHT22;30625;52.206;21.030;2023-04-24T03:51:38;11.50;88.90
44894;DHT22;30625;52.206;21.030;2023-04-24T03:54:14;12.80;90.40
44894;DHT22;30625;52.206;21.030;2023-04-24T03:56:43;11.80;90.40
44894;DHT22;30625;52.206;21.030;2023-04-24T03:59:12;11.80;90.60
44894;DHT22;30625;52.206;21.030;2023-04-24T04:01:46;11.80;90.40
44894;DHT22;30625;52.206;21.030;2023-04-24T04:04:15;11.70;89.00
44894;DHT22;30625;52.206;21.030;2023-04-24T04:07:22;10.90;88.60
44894;DHT22;30625;52.206;21.030;2023-04-24T04:12:51;11.80;89.70
44894;DHT22;30625;52.206;21.030;2023-04-24T04:15:35;11.30;89.00
44894;DHT22;30625;52.206;21.030;2023-04-24T04:18:10;12.50;89.00
44894;DHT22;30625;52.206;21.030;2023-04-24T04:21:19;13.30;89.40
44894;DHT22;30625;52.206;21.030;2023-04-24T04:23:46;11.90;88.20
44894;DHT22;30625;52.206;21.030;2023-04-24T04:26:52;11.90;88.60
44894;DHT22;30625;52.206;21.030;2023-04-24T04:29:27;11.70;88.20
44894;DHT22;30625;52.206;21.030;2023-04-24T04:31:56;12.00;87.00
44894;DHT22;30625;52.206;21.030;2023-04-24T04:34:39;12.10;87.30
44894;DHT22;30625;52.206;21.030;2023-04-24T04:37:17;11.20;86.60
44894;DHT22;30625;52.206;21.030;2023-04-24T04:40:10;12.20;87.30
44894;DHT22;30625;52.206;21.030;2023-04-24T04:43:15;12.20;87.30
44894;DHT22;30625;52.206;21.030;2023-04-24T04:45:53;12.30;87.80
44894;DHT22;30625;52.206;21.030;2023-04-24T04:48:43;12.00;88.60
44894;DHT22;30625;52.206;21.030;2023-04-24T04:56:22;12.60;89.00
44894;DHT22;30625;52.206;21.030;2023-04-24T04:58:51;12.70;88.50
44894;DHT22;30625;52.206;21.030;2023-04-24T05:01:36;12.70;87.20
44894;DHT22;30625;52.206;21.030;2023-04-24T05:04:15;12.70;85.00
44894;DHT22;30625;52.206;21.030;2023-04-24T05:06:49;12.70;84.40
44894;DHT22;30625;52.206;21.030;2023-04-24T05:09:22;12.90;84.00
44894;DHT22;30625;52.206;21.030;2023-04-24T05:14:33;12.90;84.30
44894;DHT22;30625;52.206;21.030;2023-04-24T05:23:11;13.00;84.10
44894;DHT22;30625;52.206;21.030;2023-04-24T05:32:22;13.30;82.30
44894;DHT22;30625;52.206;21.030;2023-04-24T05:35:00;13.50;81.80
44894;DHT22;30625;52.206;21.030;2023-04-24T05:37:49;13.50;81.80
44894;DHT22;30625;52.206;21.030;2023-04-24T05:41:19;13.10;81.70
44894;DHT22;30625;52.206;21.030;2023-04-24T05:43:25;13.70;81.20
44894;DHT22;30625;52.206;21.030;2023-04-24T05:45:55;13.90;81.90
44894;DHT22;30625;52.206;21.030;2023-04-24T05:48:28;13.00;81.00
44894;DHT22;30625;52.206;21.030;2023-04-24T05:51:07;14.70;81.80
44894;DHT22;30625;52.206;21.030;2023-04-24T05:53:42;14.30;80.70
44894;DHT22;30625;52.206;21.030;2023-04-24T05:56:37;14.90;82.60
44894;DHT22;30625;52.206;21.030;2023-04-24T05:59:23;15.60;76.70
44894;DHT22;30625;52.206;21.030;2023-04-24T06:01:58;16.30;73.80
44894;DHT22;30625;52.206;21.030;2023-04-24T06:04:51;17.10;72.50
44894;DHT22;30625;52.206;21.030;2023-04-24T06:07:28;18.50;70.20
44894;DHT22;30625;52.206;21.030;2023-04-24T06:10:31;18.90;68.60
44894;DHT22;30625;52.206;21.030;2023-04-24T06:15:58;20.80;63.50
44894;DHT22;30625;52.206;21.030;2023-04-24T06:18:25;20.70;62.00
44894;DHT22;30625;52.206;21.030;2023-04-24T06:21:09;21.30;64.80
44894;DHT22;30625;52.206;21.030;2023-04-24T06:23:38;21.90;60.70
44894;DHT22;30625;52.206;21.030;2023-04-24T06:26:10;22.00;60.80
44894;DHT22;30625;52.206;21.030;2023-04-24T06:28:41;22.70;60.50
44894;DHT22;30625;52.206;21.030;2023-04-24T06:31:10;23.50;59.40
44894;DHT22;30625;52.206;21.030;2023-04-24T06:33:44;23.50;57.00
44894;DHT22;30625;52.206;21.030;2023-04-24T06:36:17;22.90;57.90
44894;DHT22;30625;52.206;21.030;2023-04-24T06:38:58;23.10;57.80
44894;DHT22;30625;52.206;21.030;2023-04-24T06:41:36;23.40;57.80
44894;DHT22;30625;52.206;21.030;2023-04-24T06:44:34;24.40;58.30
44894;DHT22;30625;52.206;21.030;2023-04-24T06:47:18;23.60;58.10
44894;DHT22;30625;52.206;21.030;2023-04-24T06:53:13;23.70;58.20
44894;DHT22;30625;52.206;21.030;2023-04-24T06:55:43;23.30;57.70
44894;DHT22;30625;52.206;21.030;2023-04-24T06:58:21;23.90;58.40
44894;DHT22;30625;52.206;21.030;2023-04-24T07:00:56;23.40;57.20
44894;DHT22;30625;52.206;21.030;2023-04-24T07:03:25;22.80;58.80
44894;DHT22;30625;52.206;21.030;2023-04-24T07:05:54;22.20;62.90
44894;DHT22;30625;52.206;21.030;2023-04-24T07:08:46;23.20;63.10
44894;DHT22;30625;52.206;21.030;2023-04-24T07:11:22;21.30;62.30
44894;DHT22;30625;52.206;21.030;2023-04-24T07:13:58;20.70;63.50
44894;DHT22;30625;52.206;21.030;2023-04-24T07:16:26;20.60;64.20
44894;DHT22;30625;52.206;21.030;2023-04-24T07:18:56;20.50;64.40
44894;DHT22;30625;52.206;21.030;2023-04-24T07:21:56;19.80;64.90
44894;DHT22;30625;52.206;21.030;2023-04-24T07:28:30;19.50;67.10
44894;DHT22;30625;52.206;21.030;2023-04-24T07:31:21;19.50;68.10
44894;DHT22;30625;52.206;21.030;2023-04-24T07:38:08;18.90;68.20
44894;DHT22;30625;52.206;21.030;2023-04-24T07:41:22;19.10;69.60
44894;DHT22;30625;52.206;21.030;2023-04-24T07:44:33;19.30;69.30
44894;DHT22;30625;52.206;21.030;2023-04-24T07:47:32;19.20;68.60
44894;DHT22;30625;52.206;21.030;2023-04-24T08:56:33;21.10;67.70
44894;DHT22;30625;52.206;21.030;2023-04-24T08:59:38;21.80;64.60
44894;DHT22;30625;52.206;21.030;2023-04-24T09:10:09;22.10;65.40
44894;DHT22;30625;52.206;21.030;2023-04-24T09:12:56;22.10;63.20
44894;DHT22;30625;52.206;21.030;2023-04-24T09:16:01;22.00;63.60
44894;DHT22;30625;52.206;21.030;2023-04-24T09:18:31;21.50;63.60
44894;DHT22;30625;52.206;21.030;2023-04-24T09:21:40;21.30;64.20
44894;DHT22;30625;52.206;21.030;2023-04-24T09:31:11;21.90;63.80
44894;DHT22;30625;52.206;21.030;2023-04-24T09:37:03;22.40;62.80
44894;DHT22;30625;52.206;21.030;2023-04-24T09:43:44;22.70;62.00
44894;DHT22;30625;52.206;21.030;2023-04-24T10:29:02;22.50;60.00
44894;DHT22;30625;52.206;21.030;2023-04-24T11:41:21;23.60;49.80
44894;DHT22;30625;52.206;21.030;2023-04-24T11:53:36;24.30;50.00
44894;DHT22;30625;52.206;21.030;2023-04-24T11:56:18;24.10;48.30
44894;DHT22;30625;52.206;21.030;2023-04-24T11:59:09;24.00;48.50
44894;DHT22;30625;52.206;21.030;2023-04-24T12:01:46;24.10;50.60
44894;DHT22;30625;52.206;21.030;2023-04-24T12:04:12;24.10;50.30
44894;DHT22;30625;52.206;21.030;2023-04-24T12:06:38;24.20;49.40
44894;DHT22;30625;52.206;21.030;2023-04-24T12:09:03;24.30;50.10
44894;DHT22;30625;52.206;21.030;2023-04-24T12:11:29;24.20;49.00
44894;DHT22;30625;52.206;21.030;2023-04-24T12:13:55;24.00;49.20
44894;DHT22;30625;52.206;21.030;2023-04-24T12:16:21;23.90;50.70
44894;DHT22;30625;52.206;21.030;2023-04-24T12:18:47;24.00;51.30
44894;DHT22;30625;52.206;21.030;2023-04-24T12:21:20;24.00;51.30
44894;DHT22;30625;52.206;21.030;2023-04-24T12:23:46;24.10;49.30
44894;DHT22;30625;52.206;21.030;2023-04-24T12:26:15;24.10;50.00
44894;DHT22;30625;52.206;21.030;2023-04-24T12:28:41;24.10;51.50
44894;DHT22;30625;52.206;21.030;2023-04-24T12:31:07;24.20;50.50
44894;DHT22;30625;52.206;21.030;2023-04-24T12:33:34;24.30;52.90
44894;DHT22;30625;52.206;21.030;2023-04-24T12:36:00;24.40;50.20
44894;DHT22;30625;52.206;21.030;2023-04-24T12:38:26;24.20;50.30
44894;DHT22;30625;52.206;21.030;2023-04-24T12:41:03;23.90;51.20
44894;DHT22;30625;52.206;21.030;2023-04-24T12:43:29;23.90;49.70
44894;DHT22;30625;52.206;21.030;2023-04-24T12:45:55;23.70;51.90
44894;DHT22;30625;52.206;21.030;2023-04-24T12:48:21;23.50;52.00
44894;DHT22;30625;52.206;21.030;2023-04-24T12:50:47;23.50;52.20
44894;DHT22;30625;52.206;21.030;2023-04-24T12:53:14;23.10;52.90
44894;DHT22;30625;52.206;21.030;2023-04-24T12:55:40;22.90;53.90
44894;DHT22;30625;52.206;21.030;2023-04-24T12:58:06;22.80;54.30
44894;DHT22;30625;52.206;21.030;2023-04-24T13:00:32;22.70;55.40
44894;DHT22;30625;52.206;21.030;2023-04-24T13:02:57;22.80;54.90
44894;DHT22;30625;52.206;21.030;2023-04-24T13:05:23;22.70;54.10
44894;DHT22;30625;52.206;21.030;2023-04-24T13:07:49;22.70;54.10
44894;DHT22;30625;52.206;21.030;2023-04-24T13:10:14;22.50;54.40
44894;DHT22;30625;52.206;21.030;2023-04-24T13:12:40;22.50;55.40
44894;DHT22;30625;52.206;21.030;2023-04-24T13:15:06;22.30;55.60
44894;DHT22;30625;52.206;21.030;2023-04-24T13:17:32;22.30;54.90
44894;DHT22;30625;52.206;21.030;2023-04-24T13:19:58;22.30;54.80
44894;DHT22;30625;52.206;21.030;2023-04-24T13:22:24;22.40;54.40
44894;DHT22;30625;52.206;21.030;2023-04-24T13:24:50;22.50;54.20
44894;DHT22;30625;52.206;21.030;2023-04-24T13:27:16;22.60;52.90
44894;DHT22;30625;52.206;21.030;2023-04-24T13:29:42;22.60;53.60
44894;DHT22;30625;52.206;21.030;2023-04-24T13:32:08;22.50;53.60
44894;DHT22;30625;52.206;21.030;2023-04-24T13:34:34;22.40;53.00
44894;DHT22;30625;52.206;21.030;2023-04-24T13:37:00;22.40;53.20
44894;DHT22;30625;52.206;21.030;2023-04-24T13:39:26;22.40;53.40
44894;DHT22;30625;52.206;21.030;2023-04-24T13:41:55;22.30;53.50
44894;DHT22;30625;52.206;21.030;2023-04-24T13:44:22;22.40;52.40
44894;DHT22;30625;52.206;21.030;2023-04-24T13:46:51;22.40;54.30
44894;DHT22;30625;52.206;21.030;2023-04-24T13:49:18;22.40;57.70
44894;DHT22;30625;52.206;21.030;2023-04-24T13:51:44;21.90;55.40
44894;DHT22;30625;52.206;21.030;2023-04-24T13:54:11;21.80;55.10
44894;DHT22;30625;52.206;21.030;2023-04-24T13:56:37;21.80;55.00
44894;DHT22;30625;52.206;21.030;2023-04-24T13:59:03;21.90;54.30
44894;DHT22;30625;52.206;21.030;2023-04-24T14:01:29;22.10;53.20
44894;DHT22;30625;52.206;21.030;2023-04-24T14:03:55;22.20;53.30
44894;DHT22;30625;52.206;21.030;2023-04-24T14:06:21;22.40;52.20
44894;DHT22;30625;52.206;21.030;2023-04-24T14:08:47;22.60;50.80
44894;DHT22;30625;52.206;21.030;2023-04-24T14:11:13;22.70;50.30
44894;DHT22;30625;52.206;21.030;2023-04-24T14:13:41;22.60;51.50
44894;DHT22;30625;52.206;21.030;2023-04-24T14:16:07;22.50;49.40
44894;DHT22;30625;52.206;21.030;2023-04-24T14:18:33;22.00;50.70
44894;DHT22;30625;52.206;21.030;2023-04-24T14:20:59;22.10;50.70
44894;DHT22;30625;52.206;21.030;2023-04-24T14:23:26;22.00;48.90
44894;DHT22;30625;52.206;21.030;2023-04-24T14:25:52;21.90;49.70
44894;DHT22;30625;52.206;21.030;2023-04-24T14:28:18;22.00;51.10
44894;DHT22;30625;52.206;21.030;2023-04-24T14:30:46;21.90;48.70
44894;DHT22;30625;52.206;21.030;2023-04-24T14:33:11;21.90;50.30
44894;DHT22;30625;52.206;21.030;2023-04-24T14:35:38;22.00;51.30
44894;DHT22;30625;52.206;21.030;2023-04-24T14:38:04;21.90;50.80
44894;DHT22;30625;52.206;21.030;2023-04-24T14:40:30;21.80;50.70
44894;DHT22;30625;52.206;21.030;2023-04-24T14:42:56;21.90;52.40
44894;DHT22;30625;52.206;21.030;2023-04-24T14:45:23;21.80;50.00
44894;DHT22;30625;52.206;21.030;2023-04-24T14:47:49;21.70;50.10
44894;DHT22;30625;52.206;21.030;2023-04-24T14:50:15;21.60;50.30
44894;DHT22;30625;52.206;21.030;2023-04-24T14:52:41;21.50;50.70
44894;DHT22;30625;52.206;21.030;2023-04-24T14:55:07;21.50;51.10
44894;DHT22;30625;52.206;21.030;2023-04-24T14:57:33;21.40;50.70
44894;DHT22;30625;52.206;21.030;2023-04-24T14:59:59;21.40;51.30
44894;DHT22;30625;52.206;21.030;2023-04-24T15:02:25;21.40;51.30
44894;DHT22;30625;52.206;21.030;2023-04-24T15:04:51;21.30;51.60
44894;DHT22;30625;52.206;21.030;2023-04-24T15:07:16;21.30;51.70
44894;DHT22;30625;52.206;21.030;2023-04-24T15:09:42;21.20;53.10
44894;DHT22;30625;52.206;21.030;2023-04-24T15:12:17;21.20;53.20
44894;DHT22;30625;52.206;21.030;2023-04-24T15:14:57;21.20;56.10
44894;DHT22;30625;52.206;21.030;2023-04-24T15:17:29;21.20;55.00
44894;DHT22;30625;52.206;21.030;2023-04-24T15:19:56;21.20;54.30
44894;DHT22;30625;52.206;21.030;2023-04-24T15:22:37;21.20;53.30
44894;DHT22;30625;52.206;21.030;2023-04-24T15:36:45;20.90;54.90
44894;DHT22;30625;52.206;21.030;2023-04-24T15:39:54;20.90;55.00
44894;DHT22;30625;52.206;21.030;2023-04-24T15:46:04;20.80;55.60
44894;DHT22;30625;52.206;21.030;2023-04-24T15:48:42;21.10;55.50
44894;DHT22;30625;52.206;21.030;2023-04-24T15:51:13;20.80;51.00
44894;DHT22;30625;52.206;21.030;2023-04-24T15:53:42;20.80;50.10
44894;DHT22;30625;52.206;21.030;2023-04-24T15:56:15;20.80;54.50
44894;DHT22;30625;52.206;21.030;2023-04-24T16:02:31;20.80;54.90
44894;DHT22;30625;52.206;21.030;2023-04-24T16:05:39;20.80;55.60
44894;DHT22;30625;52.206;21.030;2023-04-24T16:20:54;20.70;56.40
44894;DHT22;30625;52.206;21.030;2023-04-24T16:27:21;20.70;58.10
44894;DHT22;30625;52.206;21.030;2023-04-24T16:30:19;20.70;54.30
44894;DHT22;30625;52.206;21.030;2023-04-24T16:32:55;20.60;56.20
44894;DHT22;30625;52.206;21.030;2023-04-24T16:43:44;20.50;53.70
44894;DHT22;30625;52.206;21.030;2023-04-24T16:46:24;20.50;53.60
44894;DHT22;30625;52.206;21.030;2023-04-24T16:49:20;20.60;56.50
44894;DHT22;30625;52.206;21.030;2023-04-24T16:52:01;21.60;54.50
44894;DHT22;30625;52.206;21.030;2023-04-24T16:54:40;20.60;54.70
44894;DHT22;30625;52.206;21.030;2023-04-24T16:57:15;20.50;54.30
44894;DHT22;30625;52.206;21.030;2023-04-24T16:59:48;20.50;54.60
44894;DHT22;30625;52.206;21.030;2023-04-24T17:02:17;20.50;55.70
44894;DHT22;30625;52.206;21.030;2023-04-24T17:04:59;20.40;55.80
44894;DHT22;30625;52.206;21.030;2023-04-24T17:10:47;20.00;56.00
44894;DHT22;30625;52.206;21.030;2023-04-24T17:13:46;20.20;58.50
44894;DHT22;30625;52.206;21.030;2023-04-24T17:19:06;19.90;59.70
44894;DHT22;30625;52.206;21.030;2023-04-24T17:22:00;20.30;60.40
44894;DHT22;30625;52.206;21.030;2023-04-24T17:24:51;19.80;60.80
44894;DHT22;30625;52.206;21.030;2023-04-24T17:35:11;19.40;62.80
44894;DHT22;30625;52.206;21.030;2023-04-24T17:37:50;18.90;61.50
44894;DHT22;30625;52.206;21.030;2023-04-24T17:40:46;19.20;62.90
44894;DHT22;30625;52.206;21.030;2023-04-24T17:43:37;19.10;63.00
44894;DHT22;30625;52.206;21.030;2023-04-24T17:46:21;19.10;64.30
44894;DHT22;30625;52.206;21.030;2023-04-24T17:49:09;19.40;65.30
44894;DHT22;30625;52.206;21.030;2023-04-24T17:51:57;18.90;66.10
44894;DHT22;30625;52.206;21.030;2023-04-24T17:54:51;18.80;66.00
44894;DHT22;30625;52.206;21.030;2023-04-24T17:57:36;18.70;67.10
44894;DHT22;30625;52.206;21.030;2023-04-24T18:03:32;18.50;68.20
44894;DHT22;30625;52.206;21.030;2023-04-24T18:06:20;18.50;68.60
44894;DHT22;30625;52.206;21.030;2023-04-24T18:08:53;18.50;69.00
44894;DHT22;30625;52.206;21.030;2023-04-24T18:11:22;18.30;68.30
44894;DHT22;30625;52.206;21.030;2023-04-24T18:14:48;18.30;68.80
44894;DHT22;30625;52.206;21.030;2023-04-24T18:17:04;18.20;68.40
44894;DHT22;30625;52.206;21.030;2023-04-24T18:20:00;18.10;69.90
44894;DHT22;30625;52.206;21.030;2023-04-24T18:25:07;17.80;66.80
44894;DHT22;30625;52.206;21.030;2023-04-24T18:28:04;17.80;65.80
44894;DHT22;30625;52.206;21.030;2023-04-24T18:34:08;17.80;67.00
44894;DHT22;30625;52.206;21.030;2023-04-24T18:36:45;17.70;66.50
44894;DHT22;30625;52.206;21.030;2023-04-24T18:39:21;17.70;66.60
44894;DHT22;30625;52.206;21.030;2023-04-24T18:45:49;17.60;66.40
44894;DHT22;30625;52.206;21.030;2023-04-24T18:48:27;17.60;66.10
44894;DHT22;30625;52.206;21.030;2023-04-24T18:50:55;17.60;67.10
44894;DHT22;30625;52.206;21.030;2023-04-24T18:53:21;17.50;67.20
44894;DHT22;30625;52.206;21.030;2023-04-24T18:55:47;17.50;67.10
44894;DHT22;30625;52.206;21.030;2023-04-24T18:58:13;17.40;68.40
44894;DHT22;30625;52.206;21.030;2023-04-24T19:00:39;17.40;69.70
44894;DHT22;30625;52.206;21.030;2023-04-24T19:03:05;17.30;67.90
44894;DHT22;30625;52.206;21.030;2023-04-24T19:05:32;17.20;69.50
44894;DHT22;30625;52.206;21.030;2023-04-24T19:08:17;17.30;69.30
44894;DHT22;30625;52.206;21.030;2023-04-24T19:10:54;16.50;69.30
44894;DHT22;30625;52.206;21.030;2023-04-24T19:13:52;17.20;65.80
44894;DHT22;30625;52.206;21.030;2023-04-24T19:16:24;17.10;69.90
44894;DHT22;30625;52.206;21.030;2023-04-24T19:18:50;17.10;67.70
44894;DHT22;30625;52.206;21.030;2023-04-24T19:21:16;17.00;69.70
44894;DHT22;30625;52.206;21.030;2023-04-24T19:23:42;17.00;69.80
44894;DHT22;30625;52.206;21.030;2023-04-24T19:26:08;17.00;69.00
44894;DHT22;30625;52.206;21.030;2023-04-24T19:28:35;16.90;68.70
44894;DHT22;30625;52.206;21.030;2023-04-24T19:31:04;16.90;67.00
44894;DHT22;30625;52.206;21.030;2023-04-24T19:33:30;16.90;66.70
44894;DHT22;30625;52.206;21.030;2023-04-24T19:35:56;16.80;66.80
44894;DHT22;30625;52.206;21.030;2023-04-24T19:38:22;16.70;67.40
44894;DHT22;30625;52.206;21.030;2023-04-24T19:40:48;16.70;67.50
44894;DHT22;30625;52.206;21.030;2023-04-24T19:43:19;16.80;67.60
44894;DHT22;30625;52.206;21.030;2023-04-24T19:45:46;16.80;68.40
44894;DHT22;30625;52.206;21.030;2023-04-24T19:48:12;16.80;69.30
44894;DHT22;30625;52.206;21.030;2023-04-24T19:50:38;16.80;67.80
44894;DHT22;30625;52.206;21.030;2023-04-24T19:53:04;16.70;68.70
44894;DHT22;30625;52.206;21.030;2023-04-24T19:55:31;16.70;68.60
44894;DHT22;30625;52.206;21.030;2023-04-24T19:57:57;16.70;69.60
44894;DHT22;30625;52.206;21.030;2023-04-24T20:00:22;16.60;70.40
44894;DHT22;30625;52.206;21.030;2023-04-24T20:03:09;16.50;69.70
44894;DHT22;30625;52.206;21.030;2023-04-24T20:06:01;16.40;67.40
44894;DHT22;30625;52.206;21.030;2023-04-24T20:08:27;16.50;68.10
44894;DHT22;30625;52.206;21.030;2023-04-24T20:10:52;16.40;67.10
44894;DHT22;30625;52.206;21.030;2023-04-24T20:13:18;16.40;64.30
44894;DHT22;30625;52.206;21.030;2023-04-24T20:15:44;16.40;63.40
44894;DHT22;30625;52.206;21.030;2023-04-24T20:18:10;16.60;63.10
44894;DHT22;30625;52.206;21.030;2023-04-24T20:20:35;16.60;63.80
44894;DHT22;30625;52.206;21.030;2023-04-24T20:23:04;16.70;64.40
44894;DHT22;30625;52.206;21.030;2023-04-24T20:25:29;16.70;65.90
44894;DHT22;30625;52.206;21.030;2023-04-24T20:27:55;16.70;67.20
44894;DHT22;30625;52.206;21.030;2023-04-24T20:30:21;16.70;67.90
44894;DHT22;30625;52.206;21.030;2023-04-24T20:32:47;16.70;70.80
44894;DHT22;30625;52.206;21.030;2023-04-24T20:35:13;16.70;71.80
44894;DHT22;30625;52.206;21.030;2023-04-24T20:37:38;16.70;72.60
44894;DHT22;30625;52.206;21.030;2023-04-24T20:40:08;16.60;72.70
44894;DHT22;30625;52.206;21.030;2023-04-24T20:42:34;16.30;74.20
44894;DHT22;30625;52.206;21.030;2023-04-24T20:45:01;16.60;74.70
44894;DHT22;30625;52.206;21.030;2023-04-24T20:47:27;16.60;74.90
44894;DHT22;30625;52.206;21.030;2023-04-24T20:49:53;16.60;75.10
44894;DHT22;30625;52.206;21.030;2023-04-24T20:52:20;16.60;76.10
44894;DHT22;30625;52.206;21.030;2023-04-24T20:54:45;16.40;77.00
44894;DHT22;30625;52.206;21.030;2023-04-24T20:57:12;16.50;76.80
44894;DHT22;30625;52.206;21.030;2023-04-24T20:59:38;16.50;77.00
44894;DHT22;30625;52.206;21.030;2023-04-24T21:02:04;16.40;77.20
44894;DHT22;30625;52.206;21.030;2023-04-24T21:04:30;16.30;77.30
44894;DHT22;30625;52.206;21.030;2023-04-24T21:07:02;16.30;76.90
44894;DHT22;30625;52.206;21.030;2023-04-24T21:09:27;16.30;77.40
44894;DHT22;30625;52.206;21.030;2023-04-24T21:11:53;16.30;77.90
44894;DHT22;30625;52.206;21.030;2023-04-24T21:14:19;16.20;77.70
44894;DHT22;30625;52.206;21.030;2023-04-24T21:16:44;16.20;78.20
44894;DHT22;30625;52.206;21.030;2023-04-24T21:19:10;16.10;78.00
44894;DHT22;30625;52.206;21.030;2023-04-24T21:21:36;16.10;78.20
44894;DHT22;30625;52.206;21.030;2023-04-24T21:24:02;16.10;78.50
44894;DHT22;30625;52.206;21.030;2023-04-24T21:26:29;16.00;78.60
44894;DHT22;30625;52.206;21.030;2023-04-24T21:28:54;15.90;78.70
44894;DHT22;30625;52.206;21.030;2023-04-24T21:31:20;16.00;79.10
44894;DHT22;30625;52.206;21.030;2023-04-24T21:33:46;15.90;78.90
44894;DHT22;30625;52.206;21.030;2023-04-24T21:36:11;15.90;79.00
44894;DHT22;30625;52.206;21.030;2023-04-24T21:38:37;15.80;79.60